sensor_id;sensor_type;location;lat;lon;timestamp;pressure;altitude;pressure_sealevel;temperature
78669;BMP280;67984;45.118;20.724;2023-07-31T00:08:03;100218.09;;;20.56
78669;BMP280;67984;45.118;20.724;2023-07-31T00:18:04;100216.28;;;20.71
78669;BMP280;67984;45.118;20.724;2023-07-31T00:28:05;100205.19;;;20.81
78669;BMP280;67984;45.118;20.724;2023-07-31T00:38:05;100200.59;;;20.82
78669;BMP280;67984;45.118;20.724;2023-07-31T00:48:07;100212.16;;;20.70
78669;BMP280;67984;45.118;20.724;2023-07-31T00:58:08;100189.91;;;20.58
78669;BMP280;67984;45.118;20.724;2023-07-31T01:08:18;100181.56;;;20.51
78669;BMP280;67984;45.118;20.724;2023-07-31T01:18:23;100179.38;;;20.41
78669;BMP280;67984;45.118;20.724;2023-07-31T01:28:29;100175.81;;;20.35
78669;BMP280;67984;45.118;20.724;2023-07-31T01:38:33;100171.88;;;20.21
78669;BMP280;67984;45.118;20.724;2023-07-31T01:48:34;100174.38;;;20.16
78669;BMP280;67984;45.118;20.724;2023-07-31T01:58:37;100173.94;;;20.17
78669;BMP280;67984;45.118;20.724;2023-07-31T02:08:37;100153.34;;;20.12
78669;BMP280;67984;45.118;20.724;2023-07-31T02:18:38;100157.47;;;20.05
78669;BMP280;67984;45.118;20.724;2023-07-31T02:28:39;100159.25;;;19.99
78669;BMP280;67984;45.118;20.724;2023-07-31T02:38:40;100163.94;;;19.95
78669;BMP280;67984;45.118;20.724;2023-07-31T02:48:40;100158.22;;;19.87
78669;BMP280;67984;45.118;20.724;2023-07-31T02:58:41;100161.88;;;19.81
78669;BMP280;67984;45.118;20.724;2023-07-31T03:08:42;100176.00;;;19.69
78669;BMP280;67984;45.118;20.724;2023-07-31T03:18:43;100180.97;;;19.58
78669;BMP280;67984;45.118;20.724;2023-07-31T03:28:43;100197.00;;;19.55
78669;BMP280;67984;45.118;20.724;2023-07-31T03:38:45;100211.00;;;19.55
78669;BMP280;67984;45.118;20.724;2023-07-31T03:48:46;100216.56;;;19.57
78669;BMP280;67984;45.118;20.724;2023-07-31T03:58:47;100217.75;;;19.56
78669;BMP280;67984;45.118;20.724;2023-07-31T04:08:48;100222.63;;;19.66
78669;BMP280;67984;45.118;20.724;2023-07-31T04:18:49;100214.69;;;19.84
78669;BMP280;67984;45.118;20.724;2023-07-31T04:28:49;100206.91;;;20.08
78669;BMP280;67984;45.118;20.724;2023-07-31T04:38:50;100227.47;;;20.75
78669;BMP280;67984;45.118;20.724;2023-07-31T04:48:51;100229.91;;;21.52
78669;BMP280;67984;45.118;20.724;2023-07-31T04:58:51;100241.19;;;21.70
78669;BMP280;67984;45.118;20.724;2023-07-31T05:08:52;100252.47;;;21.79
78669;BMP280;67984;45.118;20.724;2023-07-31T05:18:53;100270.09;;;21.91
78669;BMP280;67984;45.118;20.724;2023-07-31T05:28:53;100275.81;;;21.99
78669;BMP280;67984;45.118;20.724;2023-07-31T05:38:54;100282.91;;;22.30
78669;BMP280;67984;45.118;20.724;2023-07-31T05:48:55;100301.25;;;22.52
78669;BMP280;67984;45.118;20.724;2023-07-31T05:58:55;100311.50;;;22.87
78669;BMP280;67984;45.118;20.724;2023-07-31T06:08:57;100323.34;;;22.86
78669;BMP280;67984;45.118;20.724;2023-07-31T06:18:58;100308.09;;;22.72
78669;BMP280;67984;45.118;20.724;2023-07-31T06:28:59;100302.41;;;22.65
78669;BMP280;67984;45.118;20.724;2023-07-31T06:38:59;100290.94;;;22.73
78669;BMP280;67984;45.118;20.724;2023-07-31T06:49:07;100277.09;;;22.84
78669;BMP280;67984;45.118;20.724;2023-07-31T06:59:10;100277.03;;;23.12
78669;BMP280;67984;45.118;20.724;2023-07-31T07:09:11;100267.50;;;23.40
78669;BMP280;67984;45.118;20.724;2023-07-31T07:19:12;100272.31;;;23.76
78669;BMP280;67984;45.118;20.724;2023-07-31T07:29:12;100271.22;;;24.07
78669;BMP280;67984;45.118;20.724;2023-07-31T07:39:13;100275.47;;;24.50
78669;BMP280;67984;45.118;20.724;2023-07-31T07:49:14;100276.97;;;24.87
78669;BMP280;67984;45.118;20.724;2023-07-31T07:59:15;100283.25;;;25.31
78669;BMP280;67984;45.118;20.724;2023-07-31T08:09:16;100289.22;;;25.46
78669;BMP280;67984;45.118;20.724;2023-07-31T08:19:17;100298.50;;;25.67
78669;BMP280;67984;45.118;20.724;2023-07-31T08:29:18;100292.78;;;26.17
78669;BMP280;67984;45.118;20.724;2023-07-31T08:39:19;100288.13;;;26.88
78669;BMP280;67984;45.118;20.724;2023-07-31T08:49:20;100307.63;;;26.89
78669;BMP280;67984;45.118;20.724;2023-07-31T08:59:22;100300.03;;;26.98
78669;BMP280;67984;45.118;20.724;2023-07-31T09:09:23;100294.34;;;27.29
78669;BMP280;67984;45.118;20.724;2023-07-31T09:19:33;100293.31;;;27.37
78669;BMP280;67984;45.118;20.724;2023-07-31T09:29:34;100293.25;;;27.53
78669;BMP280;67984;45.118;20.724;2023-07-31T09:39:46;100271.38;;;27.84
78669;BMP280;67984;45.118;20.724;2023-07-31T09:49:47;100261.16;;;28.41
78669;BMP280;67984;45.118;20.724;2023-07-31T09:59:48;100269.41;;;28.48
78669;BMP280;67984;45.118;20.724;2023-07-31T10:09:51;100265.47;;;28.49
78669;BMP280;67984;45.118;20.724;2023-07-31T10:19:52;100265.72;;;28.93
78669;BMP280;67984;45.118;20.724;2023-07-31T10:29:55;100267.97;;;28.66
78669;BMP280;67984;45.118;20.724;2023-07-31T10:40:02;100267.78;;;28.40
78669;BMP280;67984;45.118;20.724;2023-07-31T10:50:13;100247.63;;;28.52
78669;BMP280;67984;45.118;20.724;2023-07-31T11:10:19;100245.03;;;28.65
78669;BMP280;67984;45.118;20.724;2023-07-31T11:20:19;100250.72;;;28.79
78669;BMP280;67984;45.118;20.724;2023-07-31T11:30:20;100248.06;;;28.98
78669;BMP280;67984;45.118;20.724;2023-07-31T11:40:21;100244.22;;;29.12
78669;BMP280;67984;45.118;20.724;2023-07-31T11:50:23;100239.91;;;29.21
78669;BMP280;67984;45.118;20.724;2023-07-31T12:00:27;100233.41;;;29.17
78669;BMP280;67984;45.118;20.724;2023-07-31T12:10:32;100241.09;;;29.26
78669;BMP280;67984;45.118;20.724;2023-07-31T12:20:33;100231.94;;;29.16
78669;BMP280;67984;45.118;20.724;2023-07-31T12:30:34;100209.31;;;29.24
78669;BMP280;67984;45.118;20.724;2023-07-31T12:40:39;100211.66;;;29.33
78669;BMP280;67984;45.118;20.724;2023-07-31T12:50:42;100207.22;;;29.18
78669;BMP280;67984;45.118;20.724;2023-07-31T13:00:43;100185.38;;;29.39
78669;BMP280;67984;45.118;20.724;2023-07-31T13:10:43;100180.13;;;29.16
78669;BMP280;67984;45.118;20.724;2023-07-31T13:20:44;100179.94;;;29.26
78669;BMP280;67984;45.118;20.724;2023-07-31T13:30:45;100174.38;;;29.37
78669;BMP280;67984;45.118;20.724;2023-07-31T13:40:46;100173.53;;;29.29
78669;BMP280;67984;45.118;20.724;2023-07-31T13:50:47;100165.34;;;29.22
78669;BMP280;67984;45.118;20.724;2023-07-31T14:00:48;100158.31;;;29.19
78669;BMP280;67984;45.118;20.724;2023-07-31T14:10:48;100154.03;;;29.11
78669;BMP280;67984;45.118;20.724;2023-07-31T14:20:49;100148.19;;;29.07
78669;BMP280;67984;45.118;20.724;2023-07-31T14:30:50;100142.59;;;29.05
78669;BMP280;67984;45.118;20.724;2023-07-31T14:40:51;100148.81;;;29.00
78669;BMP280;67984;45.118;20.724;2023-07-31T14:50:52;100141.31;;;28.93
78669;BMP280;67984;45.118;20.724;2023-07-31T15:00:52;100133.41;;;28.82
78669;BMP280;67984;45.118;20.724;2023-07-31T15:10:54;100128.53;;;28.80
78669;BMP280;67984;45.118;20.724;2023-07-31T15:20:57;100133.31;;;28.69
78669;BMP280;67984;45.118;20.724;2023-07-31T15:30:58;100119.34;;;28.52
78669;BMP280;67984;45.118;20.724;2023-07-31T15:40:59;100116.59;;;28.39
78669;BMP280;67984;45.118;20.724;2023-07-31T15:50:59;100105.59;;;28.37
78669;BMP280;67984;45.118;20.724;2023-07-31T16:01:01;100114.19;;;28.36
78669;BMP280;67984;45.118;20.724;2023-07-31T16:11:01;100113.88;;;28.21
78669;BMP280;67984;45.118;20.724;2023-07-31T16:21:02;100108.44;;;28.27
78669;BMP280;67984;45.118;20.724;2023-07-31T16:31:03;100113.44;;;28.36
78669;BMP280;67984;45.118;20.724;2023-07-31T16:41:05;100125.41;;;28.16
78669;BMP280;67984;45.118;20.724;2023-07-31T16:51:06;100119.06;;;27.90
78669;BMP280;67984;45.118;20.724;2023-07-31T17:01:06;100118.81;;;27.64
78669;BMP280;67984;45.118;20.724;2023-07-31T17:11:07;100120.41;;;27.49
78669;BMP280;67984;45.118;20.724;2023-07-31T17:21:08;100136.16;;;27.63
78669;BMP280;67984;45.118;20.724;2023-07-31T17:31:09;100140.53;;;27.32
78669;BMP280;67984;45.118;20.724;2023-07-31T17:41:10;100149.66;;;26.51
78669;BMP280;67984;45.118;20.724;2023-07-31T17:51:11;100150.97;;;25.90
78669;BMP280;67984;45.118;20.724;2023-07-31T18:01:12;100159.16;;;25.37
78669;BMP280;67984;45.118;20.724;2023-07-31T18:11:12;100166.47;;;24.85
78669;BMP280;67984;45.118;20.724;2023-07-31T18:21:14;100172.28;;;24.42
78669;BMP280;67984;45.118;20.724;2023-07-31T18:31:15;100178.75;;;24.04
78669;BMP280;67984;45.118;20.724;2023-07-31T18:41:16;100193.19;;;23.67
78669;BMP280;67984;45.118;20.724;2023-07-31T18:51:16;100207.69;;;23.41
78669;BMP280;67984;45.118;20.724;2023-07-31T19:01:18;100209.09;;;23.17
78669;BMP280;67984;45.118;20.724;2023-07-31T19:11:18;100220.41;;;22.98
78669;BMP280;67984;45.118;20.724;2023-07-31T19:21:19;100223.84;;;22.84
78669;BMP280;67984;45.118;20.724;2023-07-31T19:31:20;100221.03;;;22.73
78669;BMP280;67984;45.118;20.724;2023-07-31T19:41:20;100222.41;;;22.54
78669;BMP280;67984;45.118;20.724;2023-07-31T19:51:21;100220.50;;;22.40
78669;BMP280;67984;45.118;20.724;2023-07-31T20:01:22;100219.22;;;22.21
78669;BMP280;67984;45.118;20.724;2023-07-31T20:11:25;100218.50;;;21.98
78669;BMP280;67984;45.118;20.724;2023-07-31T20:21:26;100213.97;;;21.75
78669;BMP280;67984;45.118;20.724;2023-07-31T20:31:26;100205.56;;;21.53
78669;BMP280;67984;45.118;20.724;2023-07-31T20:41:27;100197.72;;;21.35
78669;BMP280;67984;45.118;20.724;2023-07-31T20:51:28;100197.34;;;21.19
78669;BMP280;67984;45.118;20.724;2023-07-31T21:01:28;100198.41;;;21.12
78669;BMP280;67984;45.118;20.724;2023-07-31T21:11:30;100193.16;;;21.04
78669;BMP280;67984;45.118;20.724;2023-07-31T21:21:33;100175.78;;;20.94
78669;BMP280;67984;45.118;20.724;2023-07-31T21:31:34;100171.19;;;20.71
78669;BMP280;67984;45.118;20.724;2023-07-31T21:41:34;100168.28;;;20.51
78669;BMP280;67984;45.118;20.724;2023-07-31T21:51:35;100166.13;;;20.32
78669;BMP280;67984;45.118;20.724;2023-07-31T22:01:36;100166.72;;;20.09
78669;BMP280;67984;45.118;20.724;2023-07-31T22:11:37;100155.69;;;19.93
78669;BMP280;67984;45.118;20.724;2023-07-31T22:21:37;100156.91;;;19.83
78669;BMP280;67984;45.118;20.724;2023-07-31T22:31:38;100153.91;;;19.63
78669;BMP280;67984;45.118;20.724;2023-07-31T22:41:39;100144.78;;;19.46
78669;BMP280;67984;45.118;20.724;2023-07-31T22:51:39;100120.50;;;19.30
78669;BMP280;67984;45.118;20.724;2023-07-31T23:01:40;100108.97;;;19.15
78669;BMP280;67984;45.118;20.724;2023-07-31T23:11:41;100107.94;;;19.04
78669;BMP280;67984;45.118;20.724;2023-07-31T23:21:42;100097.31;;;18.95
78669;BMP280;67984;45.118;20.724;2023-07-31T23:31:43;100081.84;;;18.84
78669;BMP280;67984;45.118;20.724;2023-07-31T23:41:45;100093.84;;;18.67
78669;BMP280;67984;45.118;20.724;2023-07-31T23:51:46;100095.34;;;18.47
